sensor_id;sensor_type;location;lat;lon;timestamp;P1;durP1;ratioP1;P2;durP2;ratioP2
51838;SDS011;37886;53.174;6.368;2023-02-27T00:00:59;30.75;;;15.38;;
51838;SDS011;37886;53.174;6.368;2023-02-27T00:03:25;27.60;;;14.57;;
51838;SDS011;37886;53.174;6.368;2023-02-27T00:05:52;23.48;;;14.50;;
51838;SDS011;37886;53.174;6.368;2023-02-27T00:08:17;25.83;;;12.98;;
51838;SDS011;37886;53.174;6.368;2023-02-27T00:10:43;21.98;;;11.82;;
51838;SDS011;37886;53.174;6.368;2023-02-27T00:13:09;20.30;;;11.70;;
51838;SDS011;37886;53.174;6.368;2023-02-27T00:15:35;29.73;;;13.35;;
51838;SDS011;37886;53.174;6.368;2023-02-27T00:18:02;26.48;;;13.68;;
51838;SDS011;37886;53.174;6.368;2023-02-27T00:20:28;23.35;;;13.05;;
51838;SDS011;37886;53.174;6.368;2023-02-27T00:22:56;31.40;;;12.80;;
51838;SDS011;37886;53.174;6.368;2023-02-27T00:25:21;23.80;;;12.98;;
51838;SDS011;37886;53.174;6.368;2023-02-27T00:27:47;25.88;;;13.00;;
51838;SDS011;37886;53.174;6.368;2023-02-27T00:30:13;26.42;;;14.30;;
51838;SDS011;37886;53.174;6.368;2023-02-27T00:32:39;23.52;;;12.88;;
51838;SDS011;37886;53.174;6.368;2023-02-27T00:35:06;28.20;;;13.95;;
51838;SDS011;37886;53.174;6.368;2023-02-27T00:37:33;23.73;;;13.57;;
51838;SDS011;37886;53.174;6.368;2023-02-27T00:39:59;28.27;;;12.85;;
51838;SDS011;37886;53.174;6.368;2023-02-27T00:42:26;23.98;;;12.93;;
51838;SDS011;37886;53.174;6.368;2023-02-27T00:44:52;26.85;;;13.23;;
51838;SDS011;37886;53.174;6.368;2023-02-27T00:47:18;20.38;;;12.48;;
51838;SDS011;37886;53.174;6.368;2023-02-27T00:49:44;24.13;;;12.77;;
51838;SDS011;37886;53.174;6.368;2023-02-27T00:52:10;24.40;;;12.57;;
51838;SDS011;37886;53.174;6.368;2023-02-27T00:54:35;22.65;;;13.00;;
51838;SDS011;37886;53.174;6.368;2023-02-27T00:57:01;23.00;;;12.60;;
51838;SDS011;37886;53.174;6.368;2023-02-27T00:59:27;20.70;;;11.45;;
51838;SDS011;37886;53.174;6.368;2023-02-27T01:01:52;21.50;;;11.68;;
51838;SDS011;37886;53.174;6.368;2023-02-27T01:04:18;18.38;;;12.07;;
51838;SDS011;37886;53.174;6.368;2023-02-27T01:06:44;27.05;;;12.63;;
51838;SDS011;37886;53.174;6.368;2023-02-27T01:09:09;24.35;;;12.27;;
51838;SDS011;37886;53.174;6.368;2023-02-27T01:11:35;28.40;;;12.80;;
51838;SDS011;37886;53.174;6.368;2023-02-27T01:14:01;24.38;;;11.48;;
51838;SDS011;37886;53.174;6.368;2023-02-27T01:16:27;22.90;;;9.93;;
51838;SDS011;37886;53.174;6.368;2023-02-27T01:18:53;19.88;;;9.65;;
51838;SDS011;37886;53.174;6.368;2023-02-27T01:21:19;18.33;;;9.73;;
51838;SDS011;37886;53.174;6.368;2023-02-27T01:23:45;18.17;;;9.73;;
51838;SDS011;37886;53.174;6.368;2023-02-27T01:26:10;16.98;;;9.90;;
51838;SDS011;37886;53.174;6.368;2023-02-27T01:28:36;17.70;;;8.77;;
51838;SDS011;37886;53.174;6.368;2023-02-27T01:31:02;20.00;;;8.57;;
51838;SDS011;37886;53.174;6.368;2023-02-27T01:33:27;15.68;;;9.30;;
51838;SDS011;37886;53.174;6.368;2023-02-27T01:35:53;18.02;;;9.25;;
51838;SDS011;37886;53.174;6.368;2023-02-27T01:38:19;17.05;;;9.15;;
51838;SDS011;37886;53.174;6.368;2023-02-27T01:40:44;16.52;;;8.95;;
51838;SDS011;37886;53.174;6.368;2023-02-27T01:43:15;21.63;;;9.77;;
51838;SDS011;37886;53.174;6.368;2023-02-27T01:45:43;19.17;;;9.13;;
51838;SDS011;37886;53.174;6.368;2023-02-27T01:50:52;21.77;;;10.18;;
51838;SDS011;37886;53.174;6.368;2023-02-27T01:53:23;28.40;;;11.38;;
51838;SDS011;37886;53.174;6.368;2023-02-27T01:55:54;24.90;;;10.68;;
51838;SDS011;37886;53.174;6.368;2023-02-27T01:58:24;32.28;;;11.43;;
51838;SDS011;37886;53.174;6.368;2023-02-27T02:00:51;21.38;;;11.05;;
51838;SDS011;37886;53.174;6.368;2023-02-27T02:05:44;24.73;;;9.15;;
51838;SDS011;37886;53.174;6.368;2023-02-27T02:08:13;21.67;;;9.73;;
51838;SDS011;37886;53.174;6.368;2023-02-27T02:13:07;15.35;;;9.27;;
51838;SDS011;37886;53.174;6.368;2023-02-27T02:15:35;14.60;;;7.72;;
51838;SDS011;37886;53.174;6.368;2023-02-27T02:18:20;14.63;;;8.65;;
51838;SDS011;37886;53.174;6.368;2023-02-27T02:41:17;14.93;;;7.20;;
51838;SDS011;37886;53.174;6.368;2023-02-27T02:49:58;17.98;;;7.18;;
51838;SDS011;37886;53.174;6.368;2023-02-27T02:52:46;17.13;;;6.75;;
51838;SDS011;37886;53.174;6.368;2023-02-27T03:01:01;14.60;;;7.53;;
51838;SDS011;37886;53.174;6.368;2023-02-27T03:03:52;12.45;;;6.15;;
51838;SDS011;37886;53.174;6.368;2023-02-27T03:06:32;18.20;;;7.53;;
51838;SDS011;37886;53.174;6.368;2023-02-27T03:09:09;15.13;;;6.50;;
51838;SDS011;37886;53.174;6.368;2023-02-27T03:11:57;11.38;;;7.03;;
51838;SDS011;37886;53.174;6.368;2023-02-27T03:17:02;10.52;;;6.22;;
51838;SDS011;37886;53.174;6.368;2023-02-27T03:19:39;12.27;;;6.43;;
51838;SDS011;37886;53.174;6.368;2023-02-27T03:22:15;8.27;;;6.32;;
51838;SDS011;37886;53.174;6.368;2023-02-27T03:24:46;13.32;;;6.53;;
51838;SDS011;37886;53.174;6.368;2023-02-27T03:27:15;14.07;;;6.95;;
51838;SDS011;37886;53.174;6.368;2023-02-27T03:29:48;8.98;;;5.97;;
51838;SDS011;37886;53.174;6.368;2023-02-27T03:32:20;11.93;;;6.10;;
51838;SDS011;37886;53.174;6.368;2023-02-27T03:34:56;20.52;;;6.85;;
51838;SDS011;37886;53.174;6.368;2023-02-27T03:45:17;15.57;;;6.70;;
51838;SDS011;37886;53.174;6.368;2023-02-27T03:47:50;10.75;;;5.97;;
51838;SDS011;37886;53.174;6.368;2023-02-27T03:50:16;10.00;;;6.35;;
51838;SDS011;37886;53.174;6.368;2023-02-27T03:52:42;10.88;;;6.07;;
51838;SDS011;37886;53.174;6.368;2023-02-27T03:55:10;12.02;;;6.28;;
51838;SDS011;37886;53.174;6.368;2023-02-27T03:57:42;9.35;;;5.85;;
51838;SDS011;37886;53.174;6.368;2023-02-27T04:00:11;11.65;;;5.70;;
51838;SDS011;37886;53.174;6.368;2023-02-27T04:02:40;14.13;;;6.35;;
51838;SDS011;37886;53.174;6.368;2023-02-27T04:05:08;9.57;;;6.25;;
51838;SDS011;37886;53.174;6.368;2023-02-27T04:19:22;12.70;;;6.32;;
51838;SDS011;37886;53.174;6.368;2023-02-27T04:27:30;12.27;;;6.28;;
51838;SDS011;37886;53.174;6.368;2023-02-27T04:30:14;12.68;;;6.25;;
51838;SDS011;37886;53.174;6.368;2023-02-27T04:33:11;12.85;;;6.90;;
51838;SDS011;37886;53.174;6.368;2023-02-27T04:41:18;12.23;;;7.32;;
51838;SDS011;37886;53.174;6.368;2023-02-27T04:43:50;10.30;;;5.65;;
51838;SDS011;37886;53.174;6.368;2023-02-27T04:46:18;10.80;;;6.18;;
51838;SDS011;37886;53.174;6.368;2023-02-27T04:48:51;7.75;;;6.28;;
51838;SDS011;37886;53.174;6.368;2023-02-27T04:51:23;10.18;;;6.38;;
51838;SDS011;37886;53.174;6.368;2023-02-27T04:53:58;7.93;;;6.05;;
51838;SDS011;37886;53.174;6.368;2023-02-27T04:56:35;15.88;;;6.20;;
51838;SDS011;37886;53.174;6.368;2023-02-27T04:59:10;12.02;;;6.70;;
51838;SDS011;37886;53.174;6.368;2023-02-27T05:01:58;11.20;;;6.55;;
51838;SDS011;37886;53.174;6.368;2023-02-27T05:04:29;15.05;;;7.35;;
51838;SDS011;37886;53.174;6.368;2023-02-27T05:06:59;15.43;;;6.80;;
51838;SDS011;37886;53.174;6.368;2023-02-27T05:09:32;13.32;;;6.25;;
51838;SDS011;37886;53.174;6.368;2023-02-27T05:12:22;9.63;;;6.75;;
51838;SDS011;37886;53.174;6.368;2023-02-27T05:17:43;12.73;;;6.78;;
51838;SDS011;37886;53.174;6.368;2023-02-27T05:20:18;10.88;;;6.65;;
51838;SDS011;37886;53.174;6.368;2023-02-27T05:22:45;14.07;;;7.30;;
51838;SDS011;37886;53.174;6.368;2023-02-27T05:30:52;10.52;;;6.85;;
51838;SDS011;37886;53.174;6.368;2023-02-27T05:33:46;9.52;;;6.65;;
51838;SDS011;37886;53.174;6.368;2023-02-27T05:36:17;11.13;;;7.63;;
51838;SDS011;37886;53.174;6.368;2023-02-27T05:38:58;9.32;;;7.32;;
51838;SDS011;37886;53.174;6.368;2023-02-27T05:41:34;15.65;;;6.30;;
51838;SDS011;37886;53.174;6.368;2023-02-27T05:44:11;11.57;;;7.15;;
51838;SDS011;37886;53.174;6.368;2023-02-27T05:46:45;11.48;;;6.82;;
51838;SDS011;37886;53.174;6.368;2023-02-27T05:49:30;15.05;;;6.78;;
51838;SDS011;37886;53.174;6.368;2023-02-27T05:52:09;17.88;;;7.03;;
51838;SDS011;37886;53.174;6.368;2023-02-27T05:57:18;13.57;;;7.07;;
51838;SDS011;37886;53.174;6.368;2023-02-27T06:00:05;11.95;;;7.07;;
51838;SDS011;37886;53.174;6.368;2023-02-27T06:02:32;15.90;;;7.72;;
51838;SDS011;37886;53.174;6.368;2023-02-27T06:04:59;11.35;;;6.88;;
51838;SDS011;37886;53.174;6.368;2023-02-27T06:07:24;11.02;;;6.10;;
51838;SDS011;37886;53.174;6.368;2023-02-27T06:09:50;13.30;;;7.05;;
51838;SDS011;37886;53.174;6.368;2023-02-27T06:12:16;9.57;;;6.15;;
51838;SDS011;37886;53.174;6.368;2023-02-27T06:14:41;10.43;;;5.80;;
51838;SDS011;37886;53.174;6.368;2023-02-27T06:17:07;11.10;;;6.10;;
51838;SDS011;37886;53.174;6.368;2023-02-27T06:19:33;10.25;;;6.10;;
51838;SDS011;37886;53.174;6.368;2023-02-27T06:21:59;14.20;;;6.07;;
51838;SDS011;37886;53.174;6.368;2023-02-27T06:24:25;13.60;;;7.10;;
51838;SDS011;37886;53.174;6.368;2023-02-27T06:26:50;10.23;;;5.90;;
51838;SDS011;37886;53.174;6.368;2023-02-27T06:29:16;12.55;;;7.03;;
51838;SDS011;37886;53.174;6.368;2023-02-27T06:31:42;10.63;;;6.90;;
51838;SDS011;37886;53.174;6.368;2023-02-27T06:34:07;8.00;;;6.75;;
51838;SDS011;37886;53.174;6.368;2023-02-27T06:36:33;8.60;;;6.20;;
51838;SDS011;37886;53.174;6.368;2023-02-27T06:38:59;11.48;;;6.38;;
51838;SDS011;37886;53.174;6.368;2023-02-27T06:41:24;10.68;;;6.63;;
51838;SDS011;37886;53.174;6.368;2023-02-27T06:43:50;10.35;;;6.85;;
51838;SDS011;37886;53.174;6.368;2023-02-27T06:46:16;11.15;;;6.70;;
51838;SDS011;37886;53.174;6.368;2023-02-27T06:48:41;9.63;;;6.95;;
51838;SDS011;37886;53.174;6.368;2023-02-27T06:51:07;11.18;;;7.72;;
51838;SDS011;37886;53.174;6.368;2023-02-27T06:53:33;11.35;;;6.50;;
51838;SDS011;37886;53.174;6.368;2023-02-27T06:55:58;13.52;;;7.13;;
51838;SDS011;37886;53.174;6.368;2023-02-27T06:58:24;20.92;;;7.07;;
51838;SDS011;37886;53.174;6.368;2023-02-27T07:00:50;16.50;;;7.63;;
51838;SDS011;37886;53.174;6.368;2023-02-27T07:03:16;10.45;;;7.97;;
51838;SDS011;37886;53.174;6.368;2023-02-27T07:05:41;19.52;;;7.43;;
51838;SDS011;37886;53.174;6.368;2023-02-27T07:08:08;14.68;;;7.47;;
51838;SDS011;37886;53.174;6.368;2023-02-27T07:10:33;13.10;;;7.63;;
51838;SDS011;37886;53.174;6.368;2023-02-27T07:12:59;15.05;;;7.30;;
51838;SDS011;37886;53.174;6.368;2023-02-27T07:15:25;11.25;;;7.68;;
51838;SDS011;37886;53.174;6.368;2023-02-27T07:17:51;20.25;;;8.80;;
51838;SDS011;37886;53.174;6.368;2023-02-27T07:20:18;18.20;;;7.72;;
51838;SDS011;37886;53.174;6.368;2023-02-27T07:22:44;11.88;;;7.68;;
51838;SDS011;37886;53.174;6.368;2023-02-27T07:25:10;18.98;;;8.25;;
51838;SDS011;37886;53.174;6.368;2023-02-27T07:27:36;14.48;;;7.93;;
51838;SDS011;37886;53.174;6.368;2023-02-27T07:30:02;16.95;;;7.50;;
51838;SDS011;37886;53.174;6.368;2023-02-27T07:32:28;14.60;;;7.43;;
51838;SDS011;37886;53.174;6.368;2023-02-27T07:34:54;14.32;;;6.93;;
51838;SDS011;37886;53.174;6.368;2023-02-27T07:37:19;13.15;;;7.28;;
51838;SDS011;37886;53.174;6.368;2023-02-27T07:39:45;11.77;;;7.78;;
51838;SDS011;37886;53.174;6.368;2023-02-27T07:42:11;9.30;;;6.72;;
51838;SDS011;37886;53.174;6.368;2023-02-27T07:44:37;10.60;;;6.43;;
51838;SDS011;37886;53.174;6.368;2023-02-27T07:47:03;15.15;;;6.65;;
51838;SDS011;37886;53.174;6.368;2023-02-27T07:49:29;12.20;;;7.95;;
51838;SDS011;37886;53.174;6.368;2023-02-27T07:51:55;13.23;;;7.32;;
51838;SDS011;37886;53.174;6.368;2023-02-27T07:54:20;18.00;;;7.50;;
51838;SDS011;37886;53.174;6.368;2023-02-27T07:56:46;19.30;;;7.80;;
51838;SDS011;37886;53.174;6.368;2023-02-27T07:59:12;16.38;;;7.57;;
51838;SDS011;37886;53.174;6.368;2023-02-27T08:01:37;15.45;;;7.25;;
51838;SDS011;37886;53.174;6.368;2023-02-27T08:04:03;18.25;;;7.70;;
51838;SDS011;37886;53.174;6.368;2023-02-27T08:06:29;12.00;;;7.10;;
51838;SDS011;37886;53.174;6.368;2023-02-27T08:08:55;13.63;;;6.68;;
51838;SDS011;37886;53.174;6.368;2023-02-27T08:11:20;19.00;;;7.13;;
51838;SDS011;37886;53.174;6.368;2023-02-27T08:13:46;15.68;;;6.35;;
51838;SDS011;37886;53.174;6.368;2023-02-27T08:16:12;20.65;;;7.85;;
51838;SDS011;37886;53.174;6.368;2023-02-27T08:18:37;14.30;;;6.47;;
51838;SDS011;37886;53.174;6.368;2023-02-27T08:21:03;12.10;;;7.03;;
51838;SDS011;37886;53.174;6.368;2023-02-27T08:23:30;18.33;;;7.63;;
51838;SDS011;37886;53.174;6.368;2023-02-27T08:25:56;18.90;;;7.65;;
51838;SDS011;37886;53.174;6.368;2023-02-27T08:28:22;18.23;;;9.00;;
51838;SDS011;37886;53.174;6.368;2023-02-27T08:30:49;10.45;;;7.30;;
51838;SDS011;37886;53.174;6.368;2023-02-27T08:33:15;12.63;;;7.70;;
51838;SDS011;37886;53.174;6.368;2023-02-27T08:35:41;10.45;;;7.35;;
51838;SDS011;37886;53.174;6.368;2023-02-27T08:38:07;17.92;;;6.70;;
51838;SDS011;37886;53.174;6.368;2023-02-27T08:40:33;14.95;;;7.43;;
51838;SDS011;37886;53.174;6.368;2023-02-27T08:42:58;10.15;;;7.25;;
51838;SDS011;37886;53.174;6.368;2023-02-27T08:45:25;15.13;;;7.15;;
51838;SDS011;37886;53.174;6.368;2023-02-27T08:47:51;14.35;;;5.82;;
51838;SDS011;37886;53.174;6.368;2023-02-27T08:50:16;14.77;;;5.85;;
51838;SDS011;37886;53.174;6.368;2023-02-27T08:52:42;7.65;;;5.90;;
51838;SDS011;37886;53.174;6.368;2023-02-27T08:55:08;13.77;;;6.90;;
51838;SDS011;37886;53.174;6.368;2023-02-27T08:57:34;15.00;;;6.18;;
51838;SDS011;37886;53.174;6.368;2023-02-27T08:59:59;35.53;;;10.45;;
51838;SDS011;37886;53.174;6.368;2023-02-27T09:02:25;34.00;;;12.85;;
51838;SDS011;37886;53.174;6.368;2023-02-27T09:04:51;23.75;;;8.98;;
51838;SDS011;37886;53.174;6.368;2023-02-27T09:07:17;15.00;;;6.97;;
51838;SDS011;37886;53.174;6.368;2023-02-27T09:09:43;12.98;;;6.25;;
51838;SDS011;37886;53.174;6.368;2023-02-27T09:12:09;15.27;;;7.03;;
51838;SDS011;37886;53.174;6.368;2023-02-27T09:14:35;14.57;;;6.13;;
51838;SDS011;37886;53.174;6.368;2023-02-27T09:17:01;13.77;;;6.20;;
51838;SDS011;37886;53.174;6.368;2023-02-27T09:19:27;12.95;;;5.35;;
51838;SDS011;37886;53.174;6.368;2023-02-27T09:21:52;11.43;;;5.15;;
51838;SDS011;37886;53.174;6.368;2023-02-27T09:24:18;12.20;;;5.50;;
51838;SDS011;37886;53.174;6.368;2023-02-27T09:26:44;11.13;;;5.00;;
51838;SDS011;37886;53.174;6.368;2023-02-27T09:29:09;12.40;;;5.60;;
51838;SDS011;37886;53.174;6.368;2023-02-27T09:31:35;8.75;;;4.82;;
51838;SDS011;37886;53.174;6.368;2023-02-27T09:34:01;7.80;;;4.57;;
51838;SDS011;37886;53.174;6.368;2023-02-27T09:36:27;9.23;;;4.20;;
51838;SDS011;37886;53.174;6.368;2023-02-27T09:38:53;8.73;;;5.25;;
51838;SDS011;37886;53.174;6.368;2023-02-27T09:41:27;14.75;;;5.43;;
51838;SDS011;37886;53.174;6.368;2023-02-27T09:44:30;14.07;;;4.93;;
51838;SDS011;37886;53.174;6.368;2023-02-27T09:46:57;12.73;;;4.32;;
51838;SDS011;37886;53.174;6.368;2023-02-27T09:49:23;14.73;;;4.47;;
51838;SDS011;37886;53.174;6.368;2023-02-27T09:51:56;12.85;;;4.75;;
51838;SDS011;37886;53.174;6.368;2023-02-27T09:54:21;10.38;;;3.95;;
51838;SDS011;37886;53.174;6.368;2023-02-27T10:04:43;14.23;;;4.97;;
51838;SDS011;37886;53.174;6.368;2023-02-27T10:12:49;8.05;;;4.25;;
51838;SDS011;37886;53.174;6.368;2023-02-27T10:15:24;7.70;;;4.10;;
51838;SDS011;37886;53.174;6.368;2023-02-27T10:17:55;7.72;;;4.30;;
51838;SDS011;37886;53.174;6.368;2023-02-27T10:20:29;8.20;;;4.28;;
51838;SDS011;37886;53.174;6.368;2023-02-27T10:22:59;6.93;;;4.32;;
51838;SDS011;37886;53.174;6.368;2023-02-27T10:25:28;9.63;;;4.88;;
51838;SDS011;37886;53.174;6.368;2023-02-27T10:27:59;6.28;;;4.53;;
51838;SDS011;37886;53.174;6.368;2023-02-27T10:30:35;5.10;;;4.57;;
51838;SDS011;37886;53.174;6.368;2023-02-27T10:33:08;14.98;;;4.43;;
51838;SDS011;37886;53.174;6.368;2023-02-27T10:35:43;5.90;;;4.20;;
51838;SDS011;37886;53.174;6.368;2023-02-27T10:38:16;7.15;;;4.63;;
51838;SDS011;37886;53.174;6.368;2023-02-27T10:41:01;5.35;;;4.40;;
51838;SDS011;37886;53.174;6.368;2023-02-27T10:43:29;4.90;;;4.40;;
51838;SDS011;37886;53.174;6.368;2023-02-27T10:45:55;6.28;;;4.82;;
51838;SDS011;37886;53.174;6.368;2023-02-27T10:48:25;6.78;;;5.18;;
51838;SDS011;37886;53.174;6.368;2023-02-27T10:50:51;6.07;;;4.88;;
51838;SDS011;37886;53.174;6.368;2023-02-27T10:53:24;7.70;;;6.28;;
51838;SDS011;37886;53.174;6.368;2023-02-27T10:58:31;5.65;;;5.15;;
51838;SDS011;37886;53.174;6.368;2023-02-27T11:00:59;5.30;;;4.90;;
51838;SDS011;37886;53.174;6.368;2023-02-27T11:03:38;6.15;;;5.55;;
51838;SDS011;37886;53.174;6.368;2023-02-27T11:08:33;5.65;;;4.70;;
51838;SDS011;37886;53.174;6.368;2023-02-27T11:11:01;5.75;;;5.25;;
51838;SDS011;37886;53.174;6.368;2023-02-27T11:13:28;6.93;;;5.45;;
51838;SDS011;37886;53.174;6.368;2023-02-27T11:16:01;5.05;;;4.72;;
51838;SDS011;37886;53.174;6.368;2023-02-27T11:18:36;5.82;;;5.43;;
51838;SDS011;37886;53.174;6.368;2023-02-27T11:26:15;5.20;;;4.80;;
51838;SDS011;37886;53.174;6.368;2023-02-27T11:28:45;5.95;;;5.45;;
51838;SDS011;37886;53.174;6.368;2023-02-27T11:31:16;6.13;;;5.43;;
51838;SDS011;37886;53.174;6.368;2023-02-27T11:33:52;6.18;;;4.80;;
51838;SDS011;37886;53.174;6.368;2023-02-27T11:36:20;5.95;;;5.45;;
51838;SDS011;37886;53.174;6.368;2023-02-27T11:38:50;5.82;;;5.20;;
51838;SDS011;37886;53.174;6.368;2023-02-27T11:41:18;6.15;;;5.53;;
51838;SDS011;37886;53.174;6.368;2023-02-27T11:43:47;6.13;;;5.60;;
51838;SDS011;37886;53.174;6.368;2023-02-27T11:46:20;5.95;;;5.55;;
51838;SDS011;37886;53.174;6.368;2023-02-27T11:48:49;6.10;;;5.57;;
51838;SDS011;37886;53.174;6.368;2023-02-27T11:54:06;8.02;;;5.30;;
51838;SDS011;37886;53.174;6.368;2023-02-27T12:04:28;6.07;;;5.57;;
51838;SDS011;37886;53.174;6.368;2023-02-27T12:10:01;5.93;;;5.45;;
51838;SDS011;37886;53.174;6.368;2023-02-27T12:12:31;6.40;;;5.93;;
51838;SDS011;37886;53.174;6.368;2023-02-27T12:15:13;7.20;;;6.47;;
51838;SDS011;37886;53.174;6.368;2023-02-27T12:21:03;6.60;;;6.15;;
51838;SDS011;37886;53.174;6.368;2023-02-27T12:23:46;6.70;;;6.30;;
51838;SDS011;37886;53.174;6.368;2023-02-27T12:26:23;7.30;;;6.70;;
51838;SDS011;37886;53.174;6.368;2023-02-27T12:37:02;7.07;;;6.57;;
51838;SDS011;37886;53.174;6.368;2023-02-27T12:39:34;7.60;;;7.10;;
51838;SDS011;37886;53.174;6.368;2023-02-27T12:42:25;6.90;;;6.50;;
51838;SDS011;37886;53.174;6.368;2023-02-27T12:50:31;7.07;;;6.55;;
51838;SDS011;37886;53.174;6.368;2023-02-27T12:53:36;7.35;;;6.95;;
51838;SDS011;37886;53.174;6.368;2023-02-27T12:56:22;6.93;;;6.43;;
51838;SDS011;37886;53.174;6.368;2023-02-27T12:59:06;6.82;;;6.43;;
51838;SDS011;37886;53.174;6.368;2023-02-27T13:01:57;6.93;;;6.43;;
51838;SDS011;37886;53.174;6.368;2023-02-27T13:04:57;7.00;;;6.55;;
51838;SDS011;37886;53.174;6.368;2023-02-27T13:10:48;6.80;;;6.30;;
51838;SDS011;37886;53.174;6.368;2023-02-27T13:16:06;7.28;;;6.70;;
51838;SDS011;37886;53.174;6.368;2023-02-27T13:19:22;6.47;;;5.97;;
51838;SDS011;37886;53.174;6.368;2023-02-27T13:21:59;6.32;;;5.78;;
51838;SDS011;37886;53.174;6.368;2023-02-27T13:24:45;6.97;;;6.10;;
51838;SDS011;37886;53.174;6.368;2023-02-27T13:27:21;7.38;;;6.40;;
51838;SDS011;37886;53.174;6.368;2023-02-27T13:35:14;7.05;;;6.45;;
51838;SDS011;37886;53.174;6.368;2023-02-27T13:38:00;6.93;;;6.43;;
51838;SDS011;37886;53.174;6.368;2023-02-27T13:46:01;7.63;;;6.68;;
51838;SDS011;37886;53.174;6.368;2023-02-27T13:48:48;6.85;;;6.25;;
51838;SDS011;37886;53.174;6.368;2023-02-27T13:54:14;6.30;;;5.80;;
51838;SDS011;37886;53.174;6.368;2023-02-27T13:57:04;6.60;;;6.07;;
51838;SDS011;37886;53.174;6.368;2023-02-27T13:59:33;7.32;;;6.63;;
51838;SDS011;37886;53.174;6.368;2023-02-27T14:04:50;7.13;;;6.63;;
51838;SDS011;37886;53.174;6.368;2023-02-27T14:07:28;9.25;;;7.35;;
51838;SDS011;37886;53.174;6.368;2023-02-27T14:10:01;7.05;;;6.35;;
51838;SDS011;37886;53.174;6.368;2023-02-27T14:12:39;8.25;;;7.53;;
51838;SDS011;37886;53.174;6.368;2023-02-27T14:17:43;8.27;;;7.40;;
51838;SDS011;37886;53.174;6.368;2023-02-27T14:28:14;8.40;;;7.70;;
51838;SDS011;37886;53.174;6.368;2023-02-27T14:31:01;8.82;;;8.13;;
51838;SDS011;37886;53.174;6.368;2023-02-27T14:33:41;9.68;;;7.95;;
51838;SDS011;37886;53.174;6.368;2023-02-27T14:36:19;8.23;;;7.60;;
51838;SDS011;37886;53.174;6.368;2023-02-27T14:38:47;9.23;;;8.43;;
51838;SDS011;37886;53.174;6.368;2023-02-27T14:43:51;7.85;;;7.13;;
51838;SDS011;37886;53.174;6.368;2023-02-27T14:46:27;9.00;;;8.30;;
51838;SDS011;37886;53.174;6.368;2023-02-27T14:48:53;9.02;;;8.32;;
51838;SDS011;37886;53.174;6.368;2023-02-27T14:51:21;8.93;;;7.85;;
51838;SDS011;37886;53.174;6.368;2023-02-27T14:53:58;8.23;;;7.40;;
51838;SDS011;37886;53.174;6.368;2023-02-27T14:56:26;13.43;;;7.38;;
51838;SDS011;37886;53.174;6.368;2023-02-27T14:58:52;7.75;;;7.15;;
51838;SDS011;37886;53.174;6.368;2023-02-27T15:01:21;8.63;;;7.45;;
51838;SDS011;37886;53.174;6.368;2023-02-27T15:03:52;8.63;;;7.72;;
51838;SDS011;37886;53.174;6.368;2023-02-27T15:08:54;8.50;;;7.60;;
51838;SDS011;37886;53.174;6.368;2023-02-27T15:11:21;7.80;;;7.03;;
51838;SDS011;37886;53.174;6.368;2023-02-27T15:13:51;7.25;;;6.75;;
51838;SDS011;37886;53.174;6.368;2023-02-27T15:18:54;9.13;;;7.05;;
51838;SDS011;37886;53.174;6.368;2023-02-27T15:21:23;8.98;;;6.90;;
51838;SDS011;37886;53.174;6.368;2023-02-27T15:23:54;9.23;;;6.85;;
51838;SDS011;37886;53.174;6.368;2023-02-27T15:26:22;8.27;;;7.00;;
51838;SDS011;37886;53.174;6.368;2023-02-27T15:28:49;7.68;;;6.97;;
51838;SDS011;37886;53.174;6.368;2023-02-27T15:31:19;8.45;;;7.65;;
51838;SDS011;37886;53.174;6.368;2023-02-27T15:33:47;7.90;;;6.65;;
51838;SDS011;37886;53.174;6.368;2023-02-27T15:36:18;7.15;;;6.53;;
51838;SDS011;37886;53.174;6.368;2023-02-27T15:41:42;7.57;;;6.72;;
51838;SDS011;37886;53.174;6.368;2023-02-27T15:44:17;7.10;;;6.40;;
51838;SDS011;37886;53.174;6.368;2023-02-27T15:46:47;6.50;;;6.10;;
51838;SDS011;37886;53.174;6.368;2023-02-27T15:49:19;7.15;;;6.45;;
51838;SDS011;37886;53.174;6.368;2023-02-27T15:51:52;6.60;;;6.18;;
51838;SDS011;37886;53.174;6.368;2023-02-27T15:54:23;6.47;;;5.93;;
51838;SDS011;37886;53.174;6.368;2023-02-27T15:56:49;6.80;;;5.97;;
51838;SDS011;37886;53.174;6.368;2023-02-27T15:59:16;7.13;;;6.43;;
51838;SDS011;37886;53.174;6.368;2023-02-27T16:01:43;6.05;;;5.65;;
51838;SDS011;37886;53.174;6.368;2023-02-27T16:04:17;7.80;;;6.45;;
51838;SDS011;37886;53.174;6.368;2023-02-27T16:06:55;6.35;;;5.60;;
51838;SDS011;37886;53.174;6.368;2023-02-27T16:09:29;8.88;;;6.30;;
51838;SDS011;37886;53.174;6.368;2023-02-27T16:12:10;8.85;;;6.32;;
51838;SDS011;37886;53.174;6.368;2023-02-27T16:14:50;8.95;;;7.53;;
51838;SDS011;37886;53.174;6.368;2023-02-27T16:17:24;8.32;;;7.20;;
51838;SDS011;37886;53.174;6.368;2023-02-27T16:19:52;11.40;;;7.53;;
51838;SDS011;37886;53.174;6.368;2023-02-27T16:22:20;18.20;;;8.63;;
51838;SDS011;37886;53.174;6.368;2023-02-27T16:24:46;13.13;;;8.55;;
51838;SDS011;37886;53.174;6.368;2023-02-27T16:27:34;14.98;;;9.77;;
51838;SDS011;37886;53.174;6.368;2023-02-27T16:29:59;8.77;;;7.07;;
51838;SDS011;37886;53.174;6.368;2023-02-27T16:32:32;6.65;;;4.88;;
51838;SDS011;37886;53.174;6.368;2023-02-27T16:35:05;5.72;;;5.15;;
51838;SDS011;37886;53.174;6.368;2023-02-27T16:37:39;5.78;;;4.93;;
51838;SDS011;37886;53.174;6.368;2023-02-27T16:42:39;5.13;;;4.72;;
51838;SDS011;37886;53.174;6.368;2023-02-27T16:45:05;6.95;;;4.82;;
51838;SDS011;37886;53.174;6.368;2023-02-27T16:47:32;6.63;;;5.20;;
51838;SDS011;37886;53.174;6.368;2023-02-27T16:49:58;9.65;;;4.82;;
51838;SDS011;37886;53.174;6.368;2023-02-27T16:52:23;8.65;;;5.10;;
51838;SDS011;37886;53.174;6.368;2023-02-27T16:54:49;5.22;;;4.75;;
51838;SDS011;37886;53.174;6.368;2023-02-27T16:57:15;5.78;;;4.43;;
51838;SDS011;37886;53.174;6.368;2023-02-27T16:59:41;8.77;;;4.45;;
51838;SDS011;37886;53.174;6.368;2023-02-27T17:02:12;5.88;;;4.30;;
51838;SDS011;37886;53.174;6.368;2023-02-27T17:04:39;6.55;;;4.03;;
51838;SDS011;37886;53.174;6.368;2023-02-27T17:07:11;4.85;;;4.32;;
51838;SDS011;37886;53.174;6.368;2023-02-27T17:09:40;11.85;;;4.57;;
51838;SDS011;37886;53.174;6.368;2023-02-27T17:12:07;6.63;;;4.55;;
51838;SDS011;37886;53.174;6.368;2023-02-27T17:14:33;6.72;;;4.63;;
51838;SDS011;37886;53.174;6.368;2023-02-27T17:16:58;6.45;;;5.00;;
51838;SDS011;37886;53.174;6.368;2023-02-27T17:19:31;4.25;;;3.85;;
51838;SDS011;37886;53.174;6.368;2023-02-27T17:21:57;9.98;;;4.70;;
51838;SDS011;37886;53.174;6.368;2023-02-27T17:24:22;5.60;;;4.50;;
51838;SDS011;37886;53.174;6.368;2023-02-27T17:26:48;7.57;;;3.78;;
51838;SDS011;37886;53.174;6.368;2023-02-27T17:29:14;8.20;;;4.88;;
51838;SDS011;37886;53.174;6.368;2023-02-27T17:31:40;5.03;;;3.92;;
51838;SDS011;37886;53.174;6.368;2023-02-27T17:34:08;5.95;;;4.18;;
51838;SDS011;37886;53.174;6.368;2023-02-27T17:36:34;8.60;;;4.22;;
51838;SDS011;37886;53.174;6.368;2023-02-27T17:39:01;10.18;;;3.90;;
51838;SDS011;37886;53.174;6.368;2023-02-27T17:41:27;9.43;;;4.47;;
51838;SDS011;37886;53.174;6.368;2023-02-27T17:43:54;5.88;;;4.25;;
51838;SDS011;37886;53.174;6.368;2023-02-27T17:46:22;6.97;;;3.83;;
51838;SDS011;37886;53.174;6.368;2023-02-27T17:48:49;4.47;;;3.60;;
51838;SDS011;37886;53.174;6.368;2023-02-27T17:51:15;8.57;;;3.90;;
51838;SDS011;37886;53.174;6.368;2023-02-27T17:53:42;12.18;;;4.22;;
51838;SDS011;37886;53.174;6.368;2023-02-27T17:56:08;10.77;;;4.35;;
51838;SDS011;37886;53.174;6.368;2023-02-27T17:58:35;7.80;;;4.30;;
51838;SDS011;37886;53.174;6.368;2023-02-27T18:01:08;5.65;;;4.18;;